Time;durP1;ratioP1;P1;durP2;ratioP2;P2;SDS_P1;SDS_P2;PMS_P1;PMS_P2;Temp;Humidity;BMP_temperature;BMP_pressure;BME280_temperature;BME280_humidity;BME280_pressure;Samples;Min_cycle;Max_cycle;Signal;HPM_P1;HPM_P2
2022/07/01 00:02:25;;;;;;;11.20;7.50;;;15.30;94.40;;;;;;5014972;28;20213;-91
2022/07/01 00:04:57;;;;;;;12.90;8.90;;;15.30;93.60;;;;;;5017028;28;20199;-92
2022/07/01 00:07:23;;;;;;;9.05;7.07;;;15.30;93.40;;;;;;5030540;28;20244;-91
2022/07/01 00:09:49;;;;;;;8.73;7.07;;;15.30;93.40;;;;;;5025127;28;20634;-90
2022/07/01 00:12:15;;;;;;;12.47;9.53;;;15.30;93.00;;;;;;5014706;28;20186;-91
2022/07/01 00:14:41;;;;;;;11.43;8.30;;;15.30;93.20;;;;;;5014588;28;20564;-90
2022/07/01 00:17:08;;;;;;;10.68;8.65;;;15.20;93.60;;;;;;5015084;28;20198;-90
2022/07/01 00:19:33;;;;;;;14.43;9.75;;;15.20;93.90;;;;;;5027833;28;20266;-92
2022/07/01 00:22:00;;;;;;;13.50;8.27;;;15.20;94.10;;;;;;5032233;28;20179;-92
2022/07/01 00:24:26;;;;;;;13.02;8.40;;;15.20;94.50;;;;;;5015211;28;20461;-93
2022/07/01 00:26:52;;;;;;;17.17;10.02;;;15.10;94.60;;;;;;5018945;28;20565;-93
2022/07/01 00:29:18;;;;;;;11.57;8.85;;;15.10;94.80;;;;;;5016258;28;20193;-93
2022/07/01 00:31:44;;;;;;;11.87;8.27;;;15.10;95.00;;;;;;5015932;28;20179;-91
2022/07/01 00:34:10;;;;;;;13.73;8.23;;;15.10;95.00;;;;;;5014217;28;20179;-92
2022/07/01 00:36:35;;;;;;;15.20;9.60;;;15.10;94.60;;;;;;5016295;28;20218;-92
2022/07/01 00:39:01;;;;;;;15.97;9.20;;;15.10;94.70;;;;;;5017582;28;20274;-90
2022/07/01 00:41:37;;;;;;;10.13;7.73;;;15.00;94.60;;;;;;5017589;28;20218;-91
2022/07/01 00:44:03;;;;;;;14.75;9.65;;;15.10;94.80;;;;;;5018841;28;20202;-91
2022/07/01 00:46:29;;;;;;;12.27;7.95;;;15.00;94.80;;;;;;5001904;28;20229;-91
2022/07/01 00:48:58;;;;;;;13.95;8.57;;;15.00;94.80;;;;;;5018061;28;20167;-91
2022/07/01 00:51:24;;;;;;;14.18;8.00;;;15.00;94.80;;;;;;5019903;28;20183;-91
2022/07/01 00:53:50;;;;;;;9.70;6.72;;;15.00;94.90;;;;;;5031142;28;20181;-91
2022/07/01 00:56:17;;;;;;;16.58;9.77;;;14.90;94.90;;;;;;5030600;28;20183;-91
2022/07/01 00:58:43;;;;;;;10.43;8.40;;;15.00;94.90;;;;;;5027102;28;20248;-93
2022/07/01 01:01:09;;;;;;;10.53;8.33;;;14.90;95.00;;;;;;5025578;28;20194;-93
2022/07/01 01:03:34;;;;;;;14.80;8.57;;;14.90;95.00;;;;;;5026471;28;20457;-92
2022/07/01 01:06:00;;;;;;;13.40;8.50;;;14.90;95.00;;;;;;5038145;28;20174;-92
2022/07/01 01:08:26;;;;;;;12.05;8.65;;;15.00;95.10;;;;;;5021370;28;20198;-91
2022/07/01 01:10:54;;;;;;;18.25;9.32;;;14.90;95.00;;;;;;5018133;28;20197;-92
2022/07/01 01:13:19;;;;;;;14.60;7.82;;;14.90;95.00;;;;;;5018563;28;20182;-92
2022/07/01 01:15:45;;;;;;;15.90;10.13;;;14.90;94.90;;;;;;5019062;28;20244;-92
2022/07/01 01:18:28;;;;;;;9.40;7.80;;;14.90;95.10;;;;;;5033287;28;20195;-93
2022/07/01 01:20:54;;;;;;;11.38;8.23;;;14.90;95.00;;;;;;5038899;28;20436;-93
2022/07/01 01:23:20;;;;;;;20.83;9.98;;;14.90;95.10;;;;;;5037823;28;20198;-92
2022/07/01 01:25:49;;;;;;;13.80;9.60;;;14.90;95.00;;;;;;5025490;28;20186;-92
2022/07/01 01:28:15;;;;;;;13.73;9.80;;;14.90;94.80;;;;;;5030782;28;20217;-92
2022/07/01 01:30:41;;;;;;;20.47;9.03;;;14.90;95.00;;;;;;5024145;28;20187;-92
2022/07/01 01:33:11;;;;;;;15.43;9.13;;;15.00;95.20;;;;;;5021363;28;20441;-92
2022/07/01 01:35:37;;;;;;;12.95;9.90;;;15.00;95.40;;;;;;5024719;28;20238;-92
2022/07/01 01:38:03;;;;;;;10.65;9.52;;;15.10;95.60;;;;;;5024267;28;20269;-92
2022/07/01 01:40:29;;;;;;;16.57;10.17;;;15.10;95.30;;;;;;5025172;28;20651;-92
2022/07/01 01:42:54;;;;;;;13.23;10.53;;;15.10;95.10;;;;;;5020835;28;20233;-90
2022/07/01 01:45:20;;;;;;;18.70;9.90;;;15.10;95.00;;;;;;5017303;28;20248;-90
2022/07/01 01:47:46;;;;;;;20.53;11.90;;;15.10;94.80;;;;;;5030202;28;20211;-90
2022/07/01 01:50:14;;;;;;;16.50;10.90;;;15.10;94.60;;;;;;5027124;28;20211;-90
2022/07/01 01:52:43;;;;;;;13.15;10.63;;;15.10;94.60;;;;;;5017624;28;20206;-90
2022/07/01 01:55:09;;;;;;;14.35;12.00;;;15.10;94.60;;;;;;5016255;28;20313;-90
2022/07/01 01:57:35;;;;;;;13.20;11.25;;;15.10;94.40;;;;;;5024780;28;20202;-91
2022/07/01 02:00:01;;;;;;;16.53;12.43;;;15.20;94.40;;;;;;5039210;28;20178;-90
2022/07/01 02:02:27;;;;;;;15.05;9.45;;;15.20;94.10;;;;;;5035468;28;20457;-90
2022/07/01 02:04:53;;;;;;;12.80;10.20;;;15.20;94.20;;;;;;5033582;28;20210;-90
2022/07/01 02:07:19;;;;;;;17.47;10.73;;;15.20;94.10;;;;;;5023411;28;20425;-90
2022/07/01 02:09:45;;;;;;;14.55;11.65;;;15.30;93.70;;;;;;5024994;28;20501;-90
2022/07/01 02:12:10;;;;;;;14.03;11.00;;;15.20;93.40;;;;;;5039149;28;20190;-91
2022/07/01 02:14:36;;;;;;;15.67;10.50;;;15.10;93.60;;;;;;5026827;28;20183;-91
2022/07/01 02:17:02;;;;;;;22.10;12.40;;;15.10;93.70;;;;;;5021084;28;20205;-92
2022/07/01 02:19:28;;;;;;;12.73;10.68;;;15.10;93.50;;;;;;5022233;28;20261;-91
2022/07/01 02:21:54;;;;;;;15.37;10.43;;;15.10;93.40;;;;;;5009219;28;20191;-89
2022/07/01 02:24:19;;;;;;;15.37;11.60;;;15.00;93.40;;;;;;5029126;28;20278;-90
2022/07/01 02:27:04;;;;;;;15.00;9.60;;;15.10;93.50;;;;;;5035478;28;20191;-91
2022/07/01 02:29:30;;;;;;;14.15;10.55;;;15.00;93.60;;;;;;5032629;28;20230;-91
2022/07/01 02:31:56;;;;;;;15.53;11.00;;;14.90;93.50;;;;;;5029049;28;20686;-91
2022/07/01 02:34:21;;;;;;;13.50;10.40;;;14.90;93.80;;;;;;5029076;28;20170;-92
2022/07/01 02:36:47;;;;;;;11.90;9.50;;;14.90;94.00;;;;;;5036026;28;20232;-91
2022/07/01 02:39:13;;;;;;;12.37;9.70;;;14.90;93.80;;;;;;5018293;28;20240;-90
2022/07/01 02:44:23;;;;;;;10.40;8.85;;;14.80;93.80;;;;;;5015678;28;20209;-89
2022/07/01 02:46:48;;;;;;;15.03;10.67;;;14.80;93.90;;;;;;4999682;28;20214;-90
2022/07/01 02:49:15;;;;;;;13.30;10.30;;;14.80;93.90;;;;;;5015269;28;20445;-91
2022/07/01 02:51:40;;;;;;;12.85;10.00;;;14.80;94.10;;;;;;5015622;28;20171;-92
2022/07/01 02:54:06;;;;;;;14.20;10.37;;;14.80;94.10;;;;;;5016850;28;20187;-91
2022/07/01 02:56:32;;;;;;;12.27;10.33;;;14.80;94.20;;;;;;4999388;28;20198;-90
2022/07/01 02:58:58;;;;;;;14.20;10.50;;;14.80;94.10;;;;;;5015087;28;20186;-89
2022/07/01 03:01:26;;;;;;;14.63;11.43;;;14.80;94.00;;;;;;5015930;28;20422;-89
2022/07/01 03:03:53;;;;;;;15.38;9.93;;;14.80;93.90;;;;;;5015636;28;20202;-89
2022/07/01 03:06:18;;;;;;;14.20;11.10;;;14.80;94.10;;;;;;5031272;28;20224;-90
2022/07/01 03:08:44;;;;;;;14.20;10.30;;;14.80;94.20;;;;;;5014988;28;20178;-90
2022/07/01 03:11:09;;;;;;;11.57;9.63;;;14.70;94.30;;;;;;5014961;28;20181;-89
2022/07/01 03:13:35;;;;;;;15.90;11.00;;;14.80;94.20;;;;;;5016417;28;20272;-90
2022/07/01 03:16:01;;;;;;;13.37;9.23;;;14.80;93.90;;;;;;5014792;28;20182;-89
2022/07/01 03:18:27;;;;;;;13.17;9.57;;;14.80;93.80;;;;;;5014876;28;20209;-89
2022/07/01 03:20:53;;;;;;;16.20;9.93;;;14.80;93.10;;;;;;4999231;28;20186;-90
2022/07/01 03:23:31;;;;;;;16.63;9.97;;;14.90;92.40;;;;;;5014681;28;20479;-91
2022/07/01 03:25:56;;;;;;;14.75;9.45;;;14.90;91.90;;;;;;5014831;28;20174;-91
2022/07/01 03:28:22;;;;;;;16.70;10.03;;;14.90;91.50;;;;;;5014560;28;20198;-90
2022/07/01 03:30:48;;;;;;;11.90;10.07;;;14.90;91.40;;;;;;5015469;28;20178;-91
2022/07/01 03:33:14;;;;;;;14.23;9.30;;;14.90;91.60;;;;;;5015163;28;20182;-91
2022/07/01 03:35:40;;;;;;;13.90;9.80;;;14.80;91.80;;;;;;5015079;28;20504;-90
2022/07/01 03:38:07;;;;;;;13.93;10.48;;;14.70;92.30;;;;;;5015043;28;20194;-90
2022/07/01 03:40:34;;;;;;;15.48;8.93;;;14.80;92.40;;;;;;5014909;28;20183;-90
2022/07/01 03:43:00;;;;;;;11.20;9.88;;;14.80;92.00;;;;;;5016294;28;20224;-91
2022/07/01 03:45:26;;;;;;;12.68;8.48;;;14.90;91.80;;;;;;5018743;28;20210;-91
2022/07/01 03:47:52;;;;;;;11.63;8.60;;;14.90;91.80;;;;;;5023051;28;20353;-90
2022/07/01 03:50:21;;;;;;;14.40;10.15;;;14.90;91.80;;;;;;5030446;28;20214;-91
2022/07/01 03:52:47;;;;;;;14.05;8.50;;;15.00;91.50;;;;;;5028964;28;20191;-90
2022/07/01 03:55:13;;;;;;;12.07;8.93;;;15.00;91.30;;;;;;5027106;28;20190;-90
2022/07/01 03:57:39;;;;;;;14.75;9.23;;;15.00;91.10;;;;;;5012160;28;20202;-91
2022/07/01 04:00:08;;;;;;;11.43;9.15;;;15.10;91.00;;;;;;5026364;28;20179;-89
2022/07/01 04:02:34;;;;;;;15.90;10.30;;;15.00;90.50;;;;;;5024759;28;20226;-91
2022/07/01 04:05:00;;;;;;;9.97;8.37;;;15.10;90.20;;;;;;5029156;28;20237;-90
2022/07/01 04:07:27;;;;;;;16.30;9.23;;;15.10;90.30;;;;;;5016308;28;20267;-90
2022/07/01 04:09:52;;;;;;;10.40;9.35;;;15.00;90.50;;;;;;5028386;28;20191;-90
2022/07/01 04:12:19;;;;;;;13.13;10.23;;;15.00;90.60;;;;;;5015819;28;20198;-92
2022/07/01 04:14:45;;;;;;;17.77;9.23;;;15.00;90.70;;;;;;5015884;28;20476;-91
2022/07/01 04:17:11;;;;;;;13.40;9.40;;;15.00;90.80;;;;;;5016036;28;20194;-90
2022/07/01 04:19:37;;;;;;;13.15;9.48;;;15.10;90.40;;;;;;5014636;28;20441;-90
2022/07/01 04:24:47;;;;;;;16.50;11.02;;;15.00;90.50;;;;;;5000724;28;20198;-90
2022/07/01 04:27:13;;;;;;;13.43;9.40;;;15.00;90.80;;;;;;5016115;28;20203;-90
2022/07/01 04:29:39;;;;;;;10.30;7.83;;;15.00;91.10;;;;;;5023475;28;20178;-91
2022/07/01 04:32:06;;;;;;;10.07;9.07;;;15.10;91.00;;;;;;5017191;28;20266;-91
2022/07/01 04:34:31;;;;;;;11.07;7.97;;;15.10;90.70;;;;;;5013650;28;20191;-91
2022/07/01 04:36:58;;;;;;;12.40;9.57;;;15.10;90.80;;;;;;5004704;28;20213;-91
2022/07/01 04:39:23;;;;;;;14.80;10.20;;;15.10;90.90;;;;;;5015032;28;20658;-91
2022/07/01 04:42:01;;;;;;;12.60;8.40;;;15.10;91.10;;;;;;5014815;28;20198;-91
2022/07/01 04:44:29;;;;;;;10.98;8.52;;;15.30;90.80;;;;;;5015247;28;20203;-91
2022/07/01 04:46:54;;;;;;;12.27;8.93;;;15.30;90.60;;;;;;5014262;28;20238;-91
2022/07/01 04:49:20;;;;;;;13.73;8.97;;;15.40;90.10;;;;;;5014640;28;20175;-91
2022/07/01 04:51:48;;;;;;;16.73;9.97;;;15.30;89.50;;;;;;5016766;28;20179;-93
2022/07/01 04:54:14;;;;;;;13.00;8.18;;;15.30;90.00;;;;;;5017969;28;20175;-91
2022/07/01 04:56:40;;;;;;;17.05;9.90;;;15.30;89.90;;;;;;5019322;28;20233;-93
2022/07/01 04:59:06;;;;;;;9.20;8.20;;;15.40;88.70;;;;;;5018600;28;20211;-92
2022/07/01 05:01:31;;;;;;;11.57;9.13;;;15.40;88.50;;;;;;5019417;28;20433;-92
2022/07/01 05:03:58;;;;;;;13.50;10.17;;;15.30;89.50;;;;;;5021663;28;20503;-93
2022/07/01 05:06:24;;;;;;;11.18;8.43;;;15.20;89.00;;;;;;5024905;28;20190;-92
2022/07/01 05:08:50;;;;;;;9.10;8.17;;;15.10;89.70;;;;;;5027941;28;20183;-92
2022/07/01 05:11:16;;;;;;;13.73;8.25;;;15.10;89.90;;;;;;5015133;28;20601;-92
2022/07/01 05:13:41;;;;;;;13.60;8.47;;;15.10;90.10;;;;;;5016876;28;20222;-92
2022/07/01 05:16:12;;;;;;;13.00;7.90;;;15.20;89.60;;;;;;5029159;28;20188;-91
2022/07/01 05:24:09;;;;;;;7.88;5.50;;;16.70;88.30;;;;;;5033055;28;20201;-92
2022/07/01 05:26:35;;;;;;;9.18;4.72;;;18.10;84.80;;;;;;5046708;28;20202;-91
2022/07/01 05:29:02;;;;;;;10.37;5.07;;;19.40;79.40;;;;;;5060745;28;20174;-93
2022/07/01 05:31:28;;;;;;;6.40;4.93;;;20.20;73.00;;;;;;5063581;28;20301;-92
2022/07/01 05:34:12;;;;;;;4.23;3.07;;;21.20;68.00;;;;;;5054513;28;20871;-94
2022/07/01 05:36:37;;;;;;;6.40;3.40;;;22.80;62.10;;;;;;5060976;28;20197;-95
2022/07/01 05:39:04;;;;;;;4.87;3.57;;;23.70;58.50;;;;;;5071150;28;20453;-95
2022/07/01 05:41:31;;;;;;;6.50;3.20;;;24.50;53.60;;;;;;5076049;28;20159;-95
2022/07/01 05:43:57;;;;;;;7.70;2.50;;;24.80;52.00;;;;;;5066964;28;20481;-94
2022/07/01 05:46:23;;;;;;;7.60;3.57;;;25.20;49.80;;;;;;5059244;28;20795;-94
2022/07/01 05:48:48;;;;;;;4.37;2.47;;;25.40;48.80;;;;;;5040642;28;20412;-94
2022/07/01 05:51:14;;;;;;;5.07;2.27;;;25.60;48.30;;;;;;5057888;28;20425;-95
2022/07/01 05:53:41;;;;;;;3.80;2.73;;;25.80;47.60;;;;;;5064779;28;20245;-94
2022/07/01 05:56:07;;;;;;;3.83;3.30;;;25.80;46.00;;;;;;5072027;28;20178;-93
2022/07/01 05:58:32;;;;;;;5.10;2.73;;;25.60;46.90;;;;;;5058109;28;20537;-92
2022/07/01 06:00:58;;;;;;;4.00;3.57;;;25.50;47.40;;;;;;5048731;28;20250;-88
2022/07/01 06:03:24;;;;;;;8.23;3.00;;;25.20;45.10;;;;;;5039461;28;20421;-89
2022/07/01 06:05:50;;;;;;;5.77;2.67;;;24.90;47.30;;;;;;5053550;28;20649;-90
2022/07/01 06:08:16;;;;;;;3.90;3.43;;;24.70;48.40;;;;;;5053338;28;20194;-90
2022/07/01 06:10:42;;;;;;;6.67;3.53;;;24.40;47.20;;;;;;5053295;28;20265;-88
2022/07/01 06:13:23;;;;;;;7.43;3.00;;;23.90;49.10;;;;;;5053453;28;20438;-88
2022/07/01 06:15:49;;;;;;;8.20;4.10;;;23.60;50.50;;;;;;5046309;28;20177;-88
2022/07/01 06:18:15;;;;;;;6.87;3.93;;;23.50;51.50;;;;;;5033266;28;20437;-89
2022/07/01 06:20:41;;;;;;;4.70;2.93;;;22.80;54.80;;;;;;5034273;28;20442;-90
2022/07/01 06:23:15;;;;;;;5.70;3.87;;;23.10;55.00;;;;;;5033495;28;20185;-91
2022/07/01 06:25:41;;;;;;;5.17;3.20;;;22.40;55.90;;;;;;5033443;28;20315;-90
2022/07/01 06:28:07;;;;;;;4.83;2.40;;;22.60;55.80;;;;;;5032508;28;20873;-89
2022/07/01 06:30:33;;;;;;;6.93;3.50;;;22.40;56.70;;;;;;5033665;28;20184;-90
2022/07/01 06:32:58;;;;;;;7.17;2.63;;;22.40;55.90;;;;;;5031793;28;20183;-89
2022/07/01 06:35:24;;;;;;;5.23;3.00;;;23.10;53.00;;;;;;5046182;28;20190;-89
2022/07/01 06:37:50;;;;;;;5.97;2.30;;;23.60;51.60;;;;;;5024289;28;20266;-88
2022/07/01 06:40:15;;;;;;;10.43;3.50;;;23.40;52.80;;;;;;5018243;28;20183;-89
2022/07/01 06:42:41;;;;;;;8.47;2.60;;;22.80;53.80;;;;;;5036127;28;20182;-88
2022/07/01 06:45:07;;;;;;;8.30;3.50;;;23.40;53.30;;;;;;5021745;28;20290;-89
2022/07/01 06:47:33;;;;;;;15.83;5.33;;;23.00;54.10;;;;;;5036240;28;20211;-88
2022/07/01 06:49:58;;;;;;;19.80;5.03;;;22.40;55.40;;;;;;5022597;28;20517;-89
2022/07/01 06:52:25;;;;;;;7.90;3.50;;;22.00;56.50;;;;;;5036625;28;20175;-88
2022/07/01 06:54:50;;;;;;;7.73;3.20;;;21.80;58.30;;;;;;5034582;28;20184;-88
2022/07/01 06:57:16;;;;;;;7.50;3.10;;;21.80;58.60;;;;;;5035423;28;20445;-91
2022/07/01 06:59:42;;;;;;;6.63;3.53;;;21.90;58.90;;;;;;5045979;28;20187;-90
2022/07/01 07:02:08;;;;;;;5.23;3.00;;;22.50;56.00;;;;;;5039585;28;20186;-88
2022/07/01 07:04:35;;;;;;;6.33;2.80;;;23.00;53.60;;;;;;5040714;28;20198;-88
2022/07/01 07:07:01;;;;;;;3.97;2.43;;;23.10;54.80;;;;;;5039272;28;20257;-89
2022/07/01 07:09:26;;;;;;;12.63;3.03;;;23.50;52.90;;;;;;5032116;28;20492;-89
2022/07/01 07:11:52;;;;;;;5.60;2.70;;;23.40;53.50;;;;;;5033779;28;20445;-89
2022/07/01 07:14:18;;;;;;;5.90;2.50;;;23.30;53.20;;;;;;5036412;28;20214;-90
2022/07/01 07:16:43;;;;;;;6.60;2.07;;;22.80;54.60;;;;;;5031696;28;20222;-89
2022/07/01 07:19:10;;;;;;;4.70;2.80;;;23.30;53.00;;;;;;5016054;28;20220;-89
2022/07/01 07:21:36;;;;;;;7.27;2.93;;;23.40;54.00;;;;;;5016132;28;20198;-87
2022/07/01 07:24:02;;;;;;;10.80;2.90;;;23.10;54.20;;;;;;5034397;28;20455;-88
2022/07/01 07:26:28;;;;;;;3.30;2.03;;;22.50;54.50;;;;;;5043924;28;20501;-87
2022/07/01 07:28:54;;;;;;;4.67;2.60;;;22.70;54.50;;;;;;5021781;28;20240;-88
2022/07/01 07:31:19;;;;;;;5.20;2.40;;;22.90;53.60;;;;;;5037146;28;20182;-87
2022/07/01 07:33:45;;;;;;;4.73;2.50;;;23.40;52.10;;;;;;5052329;28;20185;-87
2022/07/01 07:36:11;;;;;;;5.60;2.00;;;23.00;52.70;;;;;;5049012;28;20352;-88
2022/07/01 07:38:38;;;;;;;6.73;2.17;;;22.80;53.90;;;;;;5052055;28;20661;-88
2022/07/01 07:41:04;;;;;;;6.80;2.33;;;23.10;51.70;;;;;;5024284;28;20187;-88
2022/07/01 07:43:31;;;;;;;7.47;2.90;;;22.80;52.60;;;;;;5022614;28;20421;-88
2022/07/01 07:45:56;;;;;;;9.00;2.67;;;21.90;54.80;;;;;;5027050;28;20405;-88
2022/07/01 07:48:25;;;;;;;3.17;1.97;;;21.70;56.90;;;;;;5023968;28;20839;-88
2022/07/01 07:50:51;;;;;;;5.80;2.70;;;21.10;57.50;;;;;;5016994;28;20167;-89
2022/07/01 07:53:17;;;;;;;5.97;2.07;;;20.80;58.30;;;;;;5016214;28;20417;-89
2022/07/01 07:55:42;;;;;;;11.60;2.37;;;20.60;58.30;;;;;;5016208;28;20210;-89
2022/07/01 07:58:08;;;;;;;5.43;2.30;;;20.50;59.80;;;;;;5018357;28;20206;-88
2022/07/01 08:00:39;;;;;;;3.50;1.70;;;20.50;60.20;;;;;;5017362;28;20182;-88
2022/07/01 08:03:05;;;;;;;8.17;1.73;;;20.40;59.50;;;;;;5015317;28;20174;-88
2022/07/01 08:05:30;;;;;;;4.10;1.87;;;20.80;58.70;;;;;;4998710;28;20483;-88
2022/07/01 08:07:56;;;;;;;3.20;1.43;;;21.30;56.70;;;;;;5034118;28;20193;-88
2022/07/01 08:10:21;;;;;;;5.33;1.83;;;21.20;59.50;;;;;;5037870;28;20182;-87
2022/07/01 08:12:48;;;;;;;3.77;2.00;;;21.40;57.90;;;;;;5034974;28;20178;-88
2022/07/01 08:15:14;;;;;;;5.80;2.10;;;21.50;53.60;;;;;;5021822;28;20202;-88
2022/07/01 08:17:39;;;;;;;7.67;1.50;;;21.60;53.00;;;;;;5021043;28;20495;-88
2022/07/01 08:20:06;;;;;;;4.03;1.80;;;21.40;54.70;;;;;;5039340;28;20820;-88
2022/07/01 08:22:33;;;;;;;5.53;1.93;;;21.00;57.20;;;;;;5052551;28;20273;-88
2022/07/01 08:24:58;;;;;;;7.77;1.83;;;20.90;57.70;;;;;;5051175;28;20532;-88
2022/07/01 08:27:24;;;;;;;3.20;1.73;;;21.00;57.30;;;;;;5052684;28;20445;-88
2022/07/01 08:29:50;;;;;;;6.47;2.03;;;21.00;57.30;;;;;;5037541;28;20185;-87
2022/07/01 08:32:16;;;;;;;4.23;1.70;;;21.20;55.00;;;;;;5049639;28;20186;-87
2022/07/01 08:34:42;;;;;;;3.93;2.10;;;21.40;53.70;;;;;;5049594;28;20425;-89
2022/07/01 08:37:08;;;;;;;4.20;1.40;;;21.50;54.40;;;;;;5051007;28;20464;-88
2022/07/01 08:39:33;;;;;;;2.93;1.63;;;21.60;53.50;;;;;;5035296;28;20173;-88
2022/07/01 08:41:59;;;;;;;3.50;1.90;;;21.50;55.10;;;;;;5034358;28;20178;-89
2022/07/01 08:44:26;;;;;;;5.10;2.00;;;21.50;55.40;;;;;;5047604;28;20206;-88
2022/07/01 08:46:52;;;;;;;7.50;1.83;;;21.40;55.90;;;;;;5020869;28;20237;-88
2022/07/01 08:49:17;;;;;;;4.97;1.80;;;21.00;57.10;;;;;;5031390;28;20421;-88
2022/07/01 08:51:43;;;;;;;4.23;1.80;;;20.80;58.50;;;;;;5030968;28;20179;-88
2022/07/01 08:54:09;;;;;;;4.40;1.60;;;21.10;57.30;;;;;;5030632;28;20187;-88
2022/07/01 08:56:40;;;;;;;5.30;1.80;;;21.20;56.40;;;;;;5031814;28;20300;-88
2022/07/01 08:59:10;;;;;;;5.17;2.20;;;20.90;57.40;;;;;;5014954;28;20171;-88
2022/07/01 09:01:37;;;;;;;4.90;1.83;;;20.70;58.00;;;;;;4998778;28;20458;-88
2022/07/01 09:04:16;;;;;;;4.87;1.77;;;20.60;57.20;;;;;;4998304;28;20489;-86
2022/07/01 09:06:43;;;;;;;4.60;1.87;;;20.50;58.30;;;;;;4997574;28;20867;-86
2022/07/01 09:09:21;;;;;;;4.20;1.73;;;20.80;56.70;;;;;;4998295;28;20777;-87
2022/07/01 09:11:53;;;;;;;3.60;1.60;;;21.00;56.50;;;;;;4998430;28;20445;-88
2022/07/01 09:14:20;;;;;;;4.70;1.50;;;21.20;55.20;;;;;;4997856;28;20437;-87
2022/07/01 09:16:49;;;;;;;5.13;1.90;;;20.80;56.90;;;;;;4997921;28;20449;-87
2022/07/01 09:19:16;;;;;;;8.23;1.93;;;20.50;57.70;;;;;;5016298;28;20418;-87
2022/07/01 09:21:46;;;;;;;4.83;1.37;;;20.50;58.30;;;;;;5016137;28;20433;-88
2022/07/01 09:24:29;;;;;;;2.33;1.50;;;20.40;58.80;;;;;;5050628;28;20456;-87
2022/07/01 09:27:10;;;;;;;5.37;1.47;;;20.60;57.60;;;;;;5055563;28;20455;-90
2022/07/01 09:29:41;;;;;;;8.13;2.43;;;20.40;57.30;;;;;;5039266;28;20401;-88
2022/07/01 09:32:09;;;;;;;2.13;1.40;;;20.20;58.60;;;;;;5034572;28;20430;-88
2022/07/01 09:34:35;;;;;;;5.30;1.90;;;20.10;58.70;;;;;;5033609;28;20418;-88
2022/07/01 09:37:01;;;;;;;6.90;2.07;;;20.00;58.80;;;;;;5032719;28;20445;-87
2022/07/01 09:39:27;;;;;;;4.13;1.50;;;20.00;59.70;;;;;;5044805;28;20186;-88
2022/07/01 09:41:57;;;;;;;2.93;2.00;;;20.10;59.60;;;;;;5043053;28;20415;-88
2022/07/01 09:44:23;;;;;;;5.03;2.20;;;20.60;55.70;;;;;;5040029;28;20476;-88
2022/07/01 09:46:56;;;;;;;5.10;1.63;;;20.40;58.20;;;;;;5037783;28;20461;-88
2022/07/01 09:49:23;;;;;;;5.10;1.70;;;20.40;59.00;;;;;;5036055;28;20528;-88
2022/07/01 09:51:52;;;;;;;12.47;3.03;;;20.30;58.70;;;;;;5034056;28;20910;-88
2022/07/01 09:54:19;;;;;;;9.53;2.33;;;20.30;59.20;;;;;;5017781;28;20775;-88
2022/07/01 09:56:45;;;;;;;9.10;2.00;;;20.50;58.60;;;;;;5032851;28;20444;-89
2022/07/01 09:59:11;;;;;;;5.10;1.90;;;20.20;58.10;;;;;;5017890;28;20405;-88
2022/07/01 10:01:39;;;;;;;7.93;2.13;;;20.00;58.20;;;;;;5033138;28;20432;-88
2022/07/01 10:04:08;;;;;;;5.97;1.70;;;20.00;59.00;;;;;;5018107;28;20238;-88
2022/07/01 10:06:42;;;;;;;7.30;1.87;;;20.20;59.00;;;;;;5021537;28;20872;-88
2022/07/01 10:09:18;;;;;;;9.40;1.70;;;20.50;57.40;;;;;;5018454;28;20440;-88
2022/07/01 10:12:23;;;;;;;1.90;1.10;;;20.60;57.20;;;;;;5020013;28;20445;-88
2022/07/01 10:14:54;;;;;;;2.90;1.70;;;20.60;56.40;;;;;;5019700;28;20414;-88
2022/07/01 10:17:31;;;;;;;3.37;1.73;;;20.50;56.80;;;;;;5021315;28;20446;-88
2022/07/01 10:20:06;;;;;;;1.70;1.10;;;20.50;56.00;;;;;;5019562;28;20421;-85
2022/07/01 10:22:36;;;;;;;3.63;1.20;;;20.60;54.70;;;;;;5016366;28;20460;-87
2022/07/01 10:25:30;;;;;;;7.30;1.40;;;21.10;53.00;;;;;;5017273;28;20453;-87
2022/07/01 10:28:18;;;;;;;7.03;1.90;;;21.30;54.80;;;;;;5015952;28;20528;-86
2022/07/01 10:30:54;;;;;;;4.10;1.43;;;21.30;54.40;;;;;;5016084;28;20788;-87
2022/07/01 10:33:30;;;;;;;2.33;1.33;;;21.20;53.60;;;;;;5016024;28;20398;-87
2022/07/01 10:36:18;;;;;;;6.63;1.77;;;21.50;53.10;;;;;;5017988;28;20429;-87
2022/07/01 10:41:39;;;;;;;2.10;1.37;;;22.00;50.60;;;;;;5018500;28;20441;-88
2022/07/01 10:44:10;;;;;;;2.90;1.30;;;22.40;49.30;;;;;;5018835;28;20503;-88
2022/07/01 10:46:57;;;;;;;4.80;1.43;;;22.60;49.50;;;;;;5020714;28;20473;-88
2022/07/01 10:49:35;;;;;;;2.53;1.30;;;22.70;49.80;;;;;;5033096;28;20406;-88
2022/07/01 10:52:24;;;;;;;2.10;1.20;;;22.60;49.90;;;;;;5051206;28;20414;-88
2022/07/01 10:54:55;;;;;;;5.53;1.30;;;22.60;49.80;;;;;;5028941;28;20431;-88
2022/07/01 10:57:37;;;;;;;2.93;1.20;;;22.80;47.30;;;;;;5036007;28;20457;-87
2022/07/01 11:00:03;;;;;;;2.10;1.47;;;22.60;49.30;;;;;;5032539;28;20424;-88
2022/07/01 11:02:31;;;;;;;12.10;1.70;;;22.60;47.80;;;;;;5035918;28;20430;-88
2022/07/01 11:05:05;;;;;;;1.70;1.20;;;22.30;46.70;;;;;;5021773;28;20209;-88
2022/07/01 11:07:34;;;;;;;4.53;2.10;;;21.90;50.60;;;;;;5023059;28;20437;-88
2022/07/01 11:10:01;;;;;;;6.07;1.63;;;21.70;49.50;;;;;;5023216;28;20417;-88
2022/07/01 11:12:34;;;;;;;3.63;1.37;;;21.40;51.00;;;;;;5022737;28;20425;-88
2022/07/01 11:15:02;;;;;;;5.83;1.50;;;21.20;51.70;;;;;;5044387;28;20418;-88
2022/07/01 11:17:28;;;;;;;10.23;2.07;;;21.20;50.50;;;;;;5043122;28;20468;-88
2022/07/01 11:19:57;;;;;;;7.50;1.40;;;21.00;53.00;;;;;;5018324;28;20394;-88
2022/07/01 11:22:34;;;;;;;5.17;2.27;;;20.90;51.70;;;;;;5016970;28;20429;-89
2022/07/01 11:25:02;;;;;;;1.77;1.47;;;20.90;53.00;;;;;;5017636;28;20481;-88
2022/07/01 11:27:30;;;;;;;3.93;1.67;;;21.50;49.80;;;;;;5039264;28;20441;-89
2022/07/01 11:29:59;;;;;;;2.90;1.87;;;21.80;50.50;;;;;;5048865;28;20405;-88
2022/07/01 11:32:33;;;;;;;2.63;1.50;;;22.10;50.30;;;;;;5032012;28;20448;-89
2022/07/01 11:35:01;;;;;;;4.10;1.77;;;22.40;45.70;;;;;;5032978;28;20517;-87
2022/07/01 11:40:24;;;;;;;3.40;1.50;;;22.10;51.30;;;;;;5029096;28;20405;-87
2022/07/01 11:42:50;;;;;;;2.17;1.10;;;22.30;49.40;;;;;;5016705;28;20410;-87
2022/07/01 11:45:24;;;;;;;3.40;1.40;;;22.60;44.60;;;;;;5033613;28;20838;-88
2022/07/01 11:47:50;;;;;;;3.30;1.47;;;22.70;45.10;;;;;;5045048;28;20250;-88
2022/07/01 11:50:16;;;;;;;4.67;1.67;;;22.70;48.30;;;;;;5035367;28;20425;-88
2022/07/01 11:52:42;;;;;;;4.70;1.50;;;22.80;48.50;;;;;;5043249;28;20429;-88
2022/07/01 11:55:08;;;;;;;2.87;1.50;;;22.80;47.70;;;;;;5033023;28;20426;-88
2022/07/01 11:57:34;;;;;;;7.30;1.70;;;22.90;48.00;;;;;;5032117;28;20460;-88
2022/07/01 12:00:12;;;;;;;5.60;1.50;;;22.80;47.40;;;;;;5032595;28;20512;-88
2022/07/01 12:02:38;;;;;;;3.73;1.77;;;22.90;49.40;;;;;;5038967;28;20869;-88
2022/07/01 12:05:10;;;;;;;4.20;1.70;;;22.90;44.80;;;;;;5024392;28;20533;-88
2022/07/01 12:07:36;;;;;;;1.67;1.40;;;23.10;45.10;;;;;;5038768;28;20445;-89
2022/07/01 12:10:01;;;;;;;1.70;1.30;;;23.20;44.50;;;;;;5031918;28;20418;-89
2022/07/01 12:12:27;;;;;;;3.60;1.60;;;23.20;46.10;;;;;;5031136;28;20646;-89
2022/07/01 12:14:56;;;;;;;6.50;1.70;;;22.90;46.90;;;;;;5030690;28;20213;-89
2022/07/01 12:17:22;;;;;;;8.43;1.90;;;22.70;46.50;;;;;;5032128;28;20441;-90
2022/07/01 12:19:49;;;;;;;6.57;1.83;;;22.80;46.30;;;;;;5017935;28;20498;-89
2022/07/01 12:22:21;;;;;;;2.37;1.50;;;22.30;46.70;;;;;;5031803;28;20425;-89
2022/07/01 12:24:51;;;;;;;3.80;1.20;;;22.00;47.20;;;;;;5031684;28;20519;-88
2022/07/01 12:27:19;;;;;;;4.90;1.20;;;22.10;47.80;;;;;;5016805;28;20444;-88
2022/07/01 12:29:45;;;;;;;3.10;1.10;;;22.20;46.40;;;;;;5035683;28;20413;-88
2022/07/01 12:32:24;;;;;;;6.97;1.40;;;22.30;46.10;;;;;;5033184;28;20700;-90
2022/07/01 12:35:03;;;;;;;4.80;1.20;;;22.40;48.00;;;;;;5027164;28;20158;-89
2022/07/01 12:37:36;;;;;;;2.73;1.27;;;22.20;47.30;;;;;;5040620;28;20463;-89
2022/07/01 12:40:07;;;;;;;3.33;1.30;;;22.30;48.90;;;;;;5039920;28;20443;-87
2022/07/01 12:42:41;;;;;;;1.87;1.10;;;22.40;47.30;;;;;;5020804;28;20413;-86
2022/07/01 12:45:11;;;;;;;4.80;1.20;;;22.80;45.10;;;;;;5019522;28;20995;-87
2022/07/01 12:47:43;;;;;;;1.60;1.27;;;22.90;47.00;;;;;;5022691;28;20456;-89
2022/07/01 12:50:17;;;;;;;2.17;1.40;;;23.20;44.20;;;;;;5022150;28;20424;-88
2022/07/01 12:52:55;;;;;;;3.50;1.20;;;23.50;43.30;;;;;;5034718;28;20417;-88
2022/07/01 12:55:22;;;;;;;5.50;1.30;;;23.50;43.80;;;;;;5034794;28;20504;-88
2022/07/01 12:57:49;;;;;;;6.53;1.40;;;23.50;45.30;;;;;;5020556;28;20451;-88
2022/07/01 13:00:16;;;;;;;3.77;1.50;;;23.30;44.50;;;;;;5037081;28;20413;-88
2022/07/01 13:02:44;;;;;;;4.80;1.23;;;23.20;44.50;;;;;;5039742;28;20425;-88